首页
METAR-TAF:

METAR-TAF

机场 :

昌迪加尔, 印度

纬度: 30-40-29N, 经度: 76-47-26E, 海拔: 314米

当前天气观测

该预报发布于32分钟前的17:00 UTC
风速5节,风向
温度 37°C
湿度 37%
气压 996 hPa
能見度: 6000
少量云层高于3000英尺

METAR: VICG 181700Z 36005KT 6000 FEW030 37/20 Q0996 NOSIG

时间: 23:02 (17:32 UTC)

预报

该预报发布于6小时和32分钟前的11:00 UTC
预报有效从18日的 12点(UTC)到 19日的 18点(UTC)
风速10节,风向西北,有时为20节阵风
能見度: 6000
少量云层高于3000英尺
成为
从 18日的 20点(UTC)到 18日的 22点(UTC)
风速15节,风向西北,有时为25节阵风
能見度: 5000
散云层高于2500英尺
少量云层高于3000英尺, 积雨云.
散云层高于9000英尺
浮尘
成为
从 19日的 00点(UTC)到 19日的 02点(UTC)
风速10节,风向西北
能見度: 6000
少量云层高于3000英尺
散云层高于25000英尺
成为
从 19日的 08点(UTC)到 19日的 12点(UTC)
风速10节,风向西,有时为20节阵风
成为
从 19日的 14点(UTC)到 19日的 16点(UTC)
风速15节,风向东北
少量云层高于2500英尺
少量云层高于3000英尺, 积雨云.
散云层高于10000英尺

TAF: VICG 181100Z 1812/1918 32010G20KT 6000 FEW030 BECMG 1820/1822 32015G25KT 5000 DU SCT025 FEW030CB SCT090 BECMG 1900/1902 32010KT 6000 FEW030 SCT250 BECMG 1908/1912 27010G20KT BECMG 1914/1916 05015KT FEW025 FEW030CB SCT100

超过4000个机场的气象观测和天气预报(METAR&TAF报告)。

可查询的气象台以黄色和红色小点在地图上表示。

将鼠标移到小点上方,可查看气象台名称。

然后点击查看天气观测和预报。

如需切换地图:点击带黑十字的绿色按钮放大地图;点击带横线的绿色按钮缩小地图;或者点击绿色箭头查看邻近地区的地图。


METAR-TAF: